Time;durP1;ratioP1;P1;durP2;ratioP2;P2;SDS_P1;SDS_P2;PMS_P1;PMS_P2;Temp;Humidity;BMP_temperature;BMP_pressure;BME280_temperature;BME280_humidity;BME280_pressure;Samples;Min_cycle;Max_cycle;Signal;HPM_P1;HPM_P2
2021/08/09 00:01:42;;;;;;;;;2.00;1.33;;;;;20.97;48.49;100992.44;5067421;28;45373;-55
2021/08/09 00:04:08;;;;;;;;;2.00;1.00;;;;;20.94;48.90;101006.97;5063661;28;45550;-53
2021/08/09 00:06:33;;;;;;;;;1.00;1.00;;;;;20.92;48.59;101006.19;5068319;28;48380;-55
2021/08/09 00:09:00;;;;;;;;;2.00;2.00;;;;;20.90;48.62;101008.13;5063772;28;45661;-54
2021/08/09 00:11:26;;;;;;;;;2.00;2.00;;;;;20.88;48.32;101014.56;5068457;28;45381;-54
2021/08/09 00:13:51;;;;;;;;;2.00;1.00;;;;;20.83;48.53;101002.22;5065024;27;45622;-55
2021/08/09 00:16:17;;;;;;;;;1.00;1.00;;;;;20.81;48.65;100998.72;5067027;28;48266;-54
2021/08/09 00:18:46;;;;;;;;;1.67;1.00;;;;;20.79;48.97;101000.66;5064352;27;45345;-55
2021/08/09 00:21:12;;;;;;;;;1.00;1.00;;;;;20.78;48.84;100998.91;5069177;28;45246;-54
2021/08/09 00:23:38;;;;;;;;;1.00;1.00;;;;;20.75;48.65;100988.31;5064457;28;45467;-55
2021/08/09 00:26:03;;;;;;;;;1.67;0.67;;;;;20.75;49.01;100990.16;5068601;28;47503;-54
2021/08/09 00:28:29;;;;;;;;;2.00;0.67;;;;;20.75;48.88;100985.63;5060543;28;45746;-55
2021/08/09 00:30:54;;;;;;;;;1.00;1.00;;;;;20.75;49.18;100988.31;5062563;27;45787;-55
2021/08/09 00:33:20;;;;;;;;;0.33;0.33;;;;;20.75;49.38;100982.06;5072060;28;45536;-52
2021/08/09 00:35:45;;;;;;;;;1.00;1.00;;;;;20.75;49.32;100993.72;5074952;28;47335;-55
2021/08/09 00:38:11;;;;;;;;;0.67;0.67;;;;;20.76;49.23;100995.44;5067428;27;45752;-55
2021/08/09 00:40:36;;;;;;;;;1.00;1.00;;;;;20.74;49.19;100996.50;5067878;28;45416;-54
2021/08/09 00:43:02;;;;;;;;;1.00;1.00;;;;;20.74;48.80;101001.91;5073411;27;45336;-54
2021/08/09 00:45:28;;;;;;;;;1.00;1.00;;;;;20.72;49.17;100984.94;5075745;27;47409;-55
2021/08/09 00:47:53;;;;;;;;;1.00;1.00;;;;;20.71;49.24;100997.56;5072878;27;46109;-54
2021/08/09 00:50:19;;;;;;;;;1.00;1.00;;;;;20.71;49.33;100991.28;5076245;27;45929;-55
2021/08/09 00:52:45;;;;;;;;;0.00;0.00;;;;;20.71;49.27;100991.28;5064439;27;45343;-55
2021/08/09 00:55:11;;;;;;;;;3.00;1.00;;;;;20.71;49.48;100991.28;5058657;28;47134;-52
2021/08/09 00:57:37;;;;;;;;;0.33;0.33;;;;;20.72;49.55;100984.94;5058668;28;45448;-54
2021/08/09 01:00:04;;;;;;;;;2.00;2.00;;;;;20.73;49.67;100986.69;5057832;28;45369;-54
2021/08/09 01:02:30;;;;;;;;;1.33;1.33;;;;;20.74;49.78;100983.03;5052066;28;45454;-55
2021/08/09 01:05:00;;;;;;;;;2.67;2.00;;;;;20.75;49.48;100984.75;5058294;28;48269;-55
2021/08/09 01:07:30;;;;;;;;;1.33;1.33;;;;;20.74;49.86;100978.50;5058818;28;45460;-53
2021/08/09 01:10:06;;;;;;;;;1.33;1.33;;;;;20.73;49.77;100984.84;5058417;28;45650;-55
2021/08/09 01:12:40;;;;;;;;;2.00;2.00;;;;;20.69;50.00;100979.72;5074456;28;45501;-53
2021/08/09 01:15:22;;;;;;;;;1.00;1.00;;;;;20.64;49.43;100968.34;5058447;28;46948;-55
2021/08/09 01:17:51;;;;;;;;;0.67;0.67;;;;;20.61;49.81;100966.72;5055874;28;46047;-54
2021/08/09 01:20:19;;;;;;;;;3.00;1.00;;;;;20.58;50.13;100964.16;5058962;28;45436;-55
2021/08/09 01:23:01;;;;;;;;;2.00;0.67;;;;;20.55;49.75;100965.22;5058440;28;45270;-53
2021/08/09 01:25:35;;;;;;;;;1.00;1.00;;;;;20.51;50.41;100958.28;5058504;27;47386;-54
2021/08/09 01:28:04;;;;;;;;;3.00;3.00;;;;;20.49;49.99;100965.59;5052734;28;45368;-54
2021/08/09 01:30:30;;;;;;;;;2.00;2.00;;;;;20.45;49.96;100977.50;5047662;28;45393;-55
2021/08/09 01:32:56;;;;;;;;;1.00;1.00;;;;;20.42;50.20;100971.44;5057714;28;45288;-54
2021/08/09 01:35:25;;;;;;;;;0.67;0.67;;;;;20.39;50.55;100969.75;5058483;28;45568;-55
2021/08/09 01:37:57;;;;;;;;;2.00;1.67;;;;;20.35;50.25;100970.91;5053146;28;46156;-55
2021/08/09 01:40:24;;;;;;;;;2.00;2.00;;;;;20.33;50.50;100978.22;5071290;28;45320;-55
2021/08/09 01:42:50;;;;;;;;;1.00;1.00;;;;;20.28;50.85;100978.47;5061549;28;45523;-53
2021/08/09 01:45:16;;;;;;;;;1.00;1.00;;;;;20.27;50.77;100978.56;5077767;28;45390;-56
2021/08/09 01:47:44;;;;;;;;;1.00;1.00;;;;;20.23;50.80;100977.00;5061932;28;45400;-55
2021/08/09 01:50:11;;;;;;;;;1.00;1.00;;;;;20.21;51.27;100982.47;5077931;28;45576;-53
2021/08/09 01:52:41;;;;;;;;;3.00;1.67;;;;;20.20;51.25;100986.13;5061854;27;45313;-54
2021/08/09 01:55:09;;;;;;;;;0.00;0.00;;;;;20.21;51.42;100982.47;5061649;28;48574;-55
2021/08/09 01:57:37;;;;;;;;;1.33;1.33;;;;;20.21;51.08;100976.22;5070792;28;45305;-55
2021/08/09 02:00:12;;;;;;;;;1.00;1.00;;;;;20.21;50.98;100978.91;5075010;27;45559;-53
2021/08/09 02:02:39;;;;;;;;;0.00;0.00;;;;;20.20;51.34;100972.66;5072356;28;45275;-54
2021/08/09 02:05:04;;;;;;;;;1.00;1.00;;;;;20.18;51.49;100976.38;5076019;28;47151;-54
2021/08/09 02:07:32;;;;;;;;;1.00;1.00;;;;;20.16;51.24;100973.78;5077599;27;45354;-54
2021/08/09 02:09:58;;;;;;;;;1.33;1.33;;;;;20.16;51.22;100973.78;5074957;28;45391;-55
2021/08/09 02:12:23;;;;;;;;;1.00;1.00;;;;;20.17;51.23;100970.13;5077332;27;45668;-55
2021/08/09 02:14:57;;;;;;;;;2.00;2.00;;;;;20.17;51.54;100972.81;5076422;28;47385;-55
2021/08/09 02:17:40;;;;;;;;;0.00;0.00;;;;;20.14;51.49;100980.22;5081900;27;45593;-54
2021/08/09 02:20:29;;;;;;;;;1.67;1.67;;;;;20.13;51.15;100973.09;5062069;28;45772;-53
2021/08/09 02:22:58;;;;;;;;;1.00;1.00;;;;;20.11;51.43;100981.28;5060638;28;45361;-54
2021/08/09 02:25:32;;;;;;;;;2.00;1.00;;;;;20.11;51.45;100981.28;5078133;27;47276;-54
2021/08/09 02:28:05;;;;;;;;;1.00;1.00;;;;;20.08;51.32;100976.06;5061031;27;45718;-55
2021/08/09 02:30:30;;;;;;;;;2.33;0.67;;;;;20.06;51.85;100975.25;5061757;27;45310;-51
2021/08/09 02:33:00;;;;;;;;;1.00;1.00;;;;;20.05;51.91;100976.22;5061563;28;45540;-55
2021/08/09 02:35:27;;;;;;;;;0.00;0.00;;;;;20.03;52.00;100972.75;5061976;28;47257;-55
2021/08/09 02:37:54;;;;;;;;;1.00;1.00;;;;;20.02;52.06;100976.41;5061306;28;45440;-55
2021/08/09 02:40:20;;;;;;;;;1.00;1.00;;;;;20.03;51.90;100966.47;5062026;28;45315;-56
2021/08/09 02:42:47;;;;;;;;;1.00;1.00;;;;;20.02;52.18;100971.00;5061280;28;45396;-55
2021/08/09 02:45:13;;;;;;;;;2.67;2.33;;;;;20.02;52.01;100972.84;5061824;28;47127;-54
2021/08/09 02:47:40;;;;;;;;;0.67;0.67;;;;;20.02;52.36;100971.00;5061241;28;46043;-53
2021/08/09 02:50:10;;;;;;;;;2.33;1.00;;;;;20.01;51.88;100965.72;5061888;28;45737;-54
2021/08/09 02:52:38;;;;;;;;;0.33;0.33;;;;;20.01;51.91;100979.19;5058682;28;45623;-53
2021/08/09 02:55:05;;;;;;;;;2.00;1.33;;;;;19.99;52.10;100972.06;5057926;27;47162;-55
2021/08/09 02:57:31;;;;;;;;;2.67;1.67;;;;;19.99;52.38;100979.28;5060616;28;45450;-54
2021/08/09 02:59:57;;;;;;;;;1.00;1.00;;;;;19.98;52.72;100986.47;5060920;28;45349;-53
2021/08/09 03:02:25;;;;;;;;;1.00;1.00;;;;;20.01;52.42;100984.56;5057459;28;45514;-54
2021/08/09 03:04:51;;;;;;;;;0.67;0.67;;;;;20.02;52.41;100983.59;5060598;28;48384;-54
2021/08/09 03:07:18;;;;;;;;;2.67;2.00;;;;;20.02;52.36;100983.59;5060700;28;45425;-55
2021/08/09 03:09:44;;;;;;;;;1.00;1.00;;;;;20.00;52.57;100983.69;5060677;28;45385;-54
2021/08/09 03:12:12;;;;;;;;;1.00;1.00;;;;;20.00;52.87;100983.69;5060571;28;45743;-54
2021/08/09 03:14:37;;;;;;;;;4.00;2.67;;;;;20.01;52.48;100993.50;5059873;28;47253;-53
2021/08/09 03:17:05;;;;;;;;;2.67;2.00;;;;;19.99;53.03;100985.53;5053449;28;45556;-55
2021/08/09 03:19:31;;;;;;;;;2.00;1.00;;;;;19.98;52.90;100981.09;5053229;28;45573;-53
2021/08/09 03:22:01;;;;;;;;;0.00;0.00;;;;;19.98;52.84;100977.53;5039232;28;46626;-49
2021/08/09 03:24:28;;;;;;;;;0.00;0.00;;;;;19.98;52.72;100981.09;5040285;28;48376;-52
2021/08/09 03:26:55;;;;;;;;;1.00;1.00;;;;;19.99;52.92;100979.28;5053294;28;45401;-52
2021/08/09 03:29:20;;;;;;;;;1.67;1.67;;;;;19.99;52.80;100990.03;5060487;28;45464;-55
2021/08/09 03:31:47;;;;;;;;;2.00;2.00;;;;;19.99;53.04;100992.75;5058717;28;45263;-53
2021/08/09 03:34:13;;;;;;;;;1.67;1.67;;;;;19.98;52.97;100988.31;5059871;28;47667;-55
2021/08/09 03:36:41;;;;;;;;;1.33;1.33;;;;;19.97;52.83;100987.44;5059992;28;46229;-53
2021/08/09 03:39:10;;;;;;;;;2.00;2.00;;;;;19.95;53.25;100989.34;5059718;28;45266;-55
2021/08/09 03:41:36;;;;;;;;;3.00;1.33;;;;;19.94;52.85;100992.97;5060131;28;45350;-54
2021/08/09 03:44:02;;;;;;;;;1.33;1.33;;;;;19.94;53.40;100984.91;5050277;28;45435;-54
2021/08/09 03:46:27;;;;;;;;;3.00;1.00;;;;;19.92;53.17;100986.81;5078941;27;45425;-55
2021/08/09 03:48:52;;;;;;;;;2.00;1.00;;;;;19.92;53.20;100988.63;5060230;28;45478;-52
2021/08/09 03:51:18;;;;;;;;;1.00;1.00;;;;;19.92;53.52;100985.94;5060022;28;45499;-55
2021/08/09 03:53:43;;;;;;;;;1.00;1.00;;;;;19.89;53.18;100992.38;5049243;28;48271;-55
2021/08/09 03:56:09;;;;;;;;;2.00;1.33;;;;;19.89;53.18;100991.50;5055220;28;46022;-53
2021/08/09 03:58:34;;;;;;;;;3.67;2.00;;;;;19.88;53.42;100984.38;5059146;28;45462;-53
2021/08/09 04:01:00;;;;;;;;;2.00;1.00;;;;;19.86;53.75;100981.78;5056568;28;45445;-53
2021/08/09 04:03:25;;;;;;;;;1.00;1.00;;;;;19.85;53.50;100979.19;5056793;28;46296;-54
2021/08/09 04:05:51;;;;;;;;;2.00;2.00;;;;;19.83;53.61;100981.09;5053545;28;45931;-53
2021/08/09 04:08:16;;;;;;;;;1.00;1.00;;;;;19.80;53.38;100984.81;5059466;28;45324;-53
2021/08/09 04:10:41;;;;;;;;;2.33;2.33;;;;;19.80;53.75;100981.25;5059040;28;45722;-51
2021/08/09 04:13:07;;;;;;;;;1.00;1.00;;;;;19.80;53.45;100994.72;5059100;28;47210;-53
2021/08/09 04:15:32;;;;;;;;;3.33;2.67;;;;;19.78;53.68;100994.78;5059017;28;45336;-54
2021/08/09 04:17:58;;;;;;;;;2.00;2.00;;;;;19.77;53.62;100994.88;5057848;28;45400;-53
2021/08/09 04:20:23;;;;;;;;;1.67;1.00;;;;;19.75;53.99;100997.66;5054851;28;45393;-53
2021/08/09 04:22:49;;;;;;;;;1.33;1.33;;;;;19.74;53.54;100997.75;5051939;28;47213;-53
2021/08/09 04:25:14;;;;;;;;;3.00;1.67;;;;;19.70;53.73;101005.16;5054858;28;45855;-54
2021/08/09 04:27:40;;;;;;;;;1.67;1.33;;;;;19.68;53.71;101005.19;5052067;28;45284;-54
2021/08/09 04:30:06;;;;;;;;;1.00;1.00;;;;;19.65;53.93;101008.06;5057987;28;45400;-53
2021/08/09 04:32:40;;;;;;;;;3.00;1.67;;;;;19.63;53.87;101009.97;5059064;28;47180;-53
2021/08/09 04:35:11;;;;;;;;;1.00;1.00;;;;;19.62;54.17;101020.84;5057119;28;45421;-54
2021/08/09 04:37:37;;;;;;;;;2.00;2.00;;;;;19.61;54.13;101022.66;5058269;28;45668;-53
2021/08/09 04:40:04;;;;;;;;;4.00;2.00;;;;;19.61;54.36;101021.78;5048166;28;45492;-53
2021/08/09 04:42:29;;;;;;;;;0.67;0.67;;;;;19.60;54.32;101026.31;5058329;28;47513;-53
2021/08/09 04:44:55;;;;;;;;;2.00;2.00;;;;;19.61;54.02;101032.56;5058518;28;45378;-54
2021/08/09 04:47:20;;;;;;;;;1.00;1.00;;;;;19.61;54.36;101022.66;5091753;27;45511;-54
2021/08/09 04:49:46;;;;;;;;;3.00;3.00;;;;;19.61;54.30;101024.47;5059362;28;45583;-55
2021/08/09 04:52:11;;;;;;;;;3.00;2.00;;;;;19.59;54.68;101016.50;5058741;28;48152;-54
2021/08/09 04:54:36;;;;;;;;;2.00;1.00;;;;;19.61;54.35;101021.78;5072864;27;45464;-52
2021/08/09 04:57:02;;;;;;;;;2.00;2.00;;;;;19.60;54.47;101025.44;5046422;28;45345;-54
2021/08/09 04:59:28;;;;;;;;;1.00;1.00;;;;;19.59;54.29;101012.94;5047758;28;45513;-53
2021/08/09 05:01:53;;;;;;;;;1.00;1.00;;;;;19.58;54.72;101019.28;5056148;28;46398;-54
2021/08/09 05:04:19;;;;;;;;;1.67;1.67;;;;;19.57;54.59;101015.72;5057273;28;45398;-55
2021/08/09 05:06:46;;;;;;;;;3.67;2.67;;;;;19.59;54.79;101019.19;5058547;28;45560;-53
2021/08/09 05:09:12;;;;;;;;;3.33;2.33;;;;;19.62;54.42;101028.91;5058581;28;45464;-55
2021/08/09 05:11:37;;;;;;;;;2.33;2.33;;;;;19.64;54.95;101019.78;5073190;28;47310;-54
2021/08/09 05:14:03;;;;;;;;;2.00;2.00;;;;;19.66;54.37;101023.28;5070623;28;46191;-54
2021/08/09 05:16:29;;;;;;;;;2.33;2.33;;;;;19.68;54.31;101031.25;5044295;28;45427;-54
2021/08/09 05:19:01;;;;;;;;;3.67;2.00;;;;;19.67;54.60;101043.84;5055325;28;45782;-54
2021/08/09 05:21:27;;;;;;;;;3.67;2.33;;;;;19.69;54.43;101036.59;5073801;27;47747;-53
2021/08/09 05:23:52;;;;;;;;;3.00;3.00;;;;;19.71;54.57;101038.31;5058155;28;45551;-54
2021/08/09 05:26:18;;;;;;;;;3.00;2.00;;;;;19.72;54.54;101038.25;5058282;28;45746;-53
2021/08/09 05:28:43;;;;;;;;;2.67;2.00;;;;;19.73;54.71;101033.72;5057155;28;45584;-51
2021/08/09 05:31:09;;;;;;;;;1.67;1.67;;;;;19.74;54.93;101030.94;5047650;28;48197;-49
2021/08/09 05:33:34;;;;;;;;;2.33;2.33;;;;;19.75;54.84;101019.22;5053996;28;45417;-54
2021/08/09 05:36:00;;;;;;;;;2.67;2.67;;;;;19.77;54.57;101029.91;5048616;28;45628;-54
2021/08/09 05:38:25;;;;;;;;;1.67;1.67;;;;;19.77;54.68;101027.19;5058007;28;45558;-54
2021/08/09 05:40:51;;;;;;;;;1.33;1.33;;;;;19.77;54.79;101030.75;5057593;28;49034;-54
2021/08/09 05:43:16;;;;;;;;;2.33;2.33;;;;;19.78;54.75;101020.84;5057611;28;45488;-55
2021/08/09 05:45:42;;;;;;;;;3.00;1.67;;;;;19.80;54.83;101027.03;5062243;28;45468;-52
2021/08/09 05:48:07;;;;;;;;;1.00;1.00;;;;;19.85;54.91;101033.03;5057191;28;45458;-53
2021/08/09 05:50:33;;;;;;;;;1.00;1.00;;;;;19.87;54.87;101040.09;5064265;28;47363;-55
2021/08/09 05:52:58;;;;;;;;;3.00;2.00;;;;;19.89;54.86;101040.00;5054063;28;45419;-53
2021/08/09 05:55:25;;;;;;;;;1.00;1.00;;;;;19.88;54.47;101041.81;5062588;28;45483;-53
2021/08/09 05:57:51;;;;;;;;;1.67;1.00;;;;;19.89;54.74;101042.69;5058008;28;45434;-54
2021/08/09 06:00:17;;;;;;;;;2.00;1.00;;;;;19.91;54.69;101040.78;5062534;28;47076;-53
2021/08/09 06:02:43;;;;;;;;;1.33;1.33;;;;;19.89;54.54;101042.69;5063254;28;45377;-54
2021/08/09 06:05:10;;;;;;;;;2.00;2.00;;;;;19.89;54.80;101035.47;5061061;28;45528;-54
2021/08/09 06:07:36;;;;;;;;;2.00;2.00;;;;;19.92;55.24;101045.19;5061109;28;45503;-55
2021/08/09 06:10:02;;;;;;;;;3.00;3.00;;;;;19.95;55.04;101045.94;5058315;28;46936;-53
2021/08/09 06:12:27;;;;;;;;;4.00;4.00;;;;;19.98;54.55;101052.97;5059561;28;45265;-54
2021/08/09 06:14:53;;;;;;;;;4.00;3.00;;;;;20.03;54.96;101058.94;5064031;28;45625;-55
2021/08/09 06:17:19;;;;;;;;;4.33;3.00;;;;;20.08;55.01;101061.41;5061113;28;45567;-55
2021/08/09 06:19:44;;;;;;;;;2.00;2.00;;;;;20.12;54.64;101071.06;5059378;28;47400;-54
2021/08/09 06:22:10;;;;;;;;;2.00;2.00;;;;;20.16;55.10;101065.41;5053890;28;45725;-53
2021/08/09 06:24:35;;;;;;;;;3.00;3.00;;;;;20.18;54.34;101050.00;5064441;28;45432;-54
2021/08/09 06:27:01;;;;;;;;;3.00;3.00;;;;;20.19;54.49;101067.03;5057350;28;45511;-54
2021/08/09 06:29:26;;;;;;;;;1.33;1.00;;;;;20.19;54.50;101076.00;5063283;28;47164;-54
2021/08/09 06:31:52;;;;;;;;;2.67;1.33;;;;;20.19;54.70;101062.53;5071236;28;45814;-54
2021/08/09 06:34:17;;;;;;;;;2.33;2.00;;;;;20.17;54.82;101063.56;5078005;27;45502;-57
2021/08/09 06:36:43;;;;;;;;;1.67;1.67;;;;;20.17;54.49;101068.97;5057854;28;45421;-54
2021/08/09 06:39:11;;;;;;;;;3.00;2.67;;;;;20.13;54.62;101057.50;5068380;28;48204;-53
2021/08/09 06:41:37;;;;;;;;;3.33;3.00;;;;;20.14;54.76;101071.84;5074736;28;45358;-53
2021/08/09 06:44:02;;;;;;;;;3.00;2.00;;;;;20.13;54.71;101079.03;5070309;27;45326;-54
2021/08/09 06:46:28;;;;;;;;;4.00;3.67;;;;;20.14;55.12;101079.91;5075384;28;45385;-53
2021/08/09 06:48:53;;;;;;;;;3.33;3.33;;;;;20.16;55.02;101076.16;5076372;27;46819;-53
2021/08/09 06:51:19;;;;;;;;;3.00;2.67;;;;;20.16;54.97;101081.56;5075235;28;45491;-55
2021/08/09 06:53:44;;;;;;;;;2.67;2.67;;;;;20.17;55.16;101086.00;5074721;27;45456;-55
2021/08/09 06:56:14;;;;;;;;;3.00;3.00;;;;;20.20;55.14;101079.56;5079339;27;45325;-55
2021/08/09 06:58:40;;;;;;;;;3.00;3.00;;;;;20.22;55.37;101073.16;5070752;28;47996;-52
2021/08/09 07:01:05;;;;;;;;;3.67;3.67;;;;;20.27;55.40;101086.34;5074262;28;45929;-53
2021/08/09 07:03:31;;;;;;;;;3.00;3.00;;;;;20.29;55.75;101084.44;5075160;28;45775;-54
2021/08/09 07:05:56;;;;;;;;;4.00;2.33;;;;;20.33;55.29;101085.13;5076219;28;46097;-54
2021/08/09 07:08:22;;;;;;;;;2.67;2.67;;;;;20.34;55.49;101082.38;5076386;27;48011;-55
2021/08/09 07:10:47;;;;;;;;;3.67;3.33;;;;;20.37;55.82;101084.88;5053433;28;45434;-54
2021/08/09 07:13:13;;;;;;;;;3.33;3.33;;;;;20.38;55.43;101089.31;5087774;27;45421;-52
2021/08/09 07:15:38;;;;;;;;;3.00;2.33;;;;;20.40;55.81;101090.09;5071048;28;45256;-54
2021/08/09 07:18:04;;;;;;;;;4.00;3.33;;;;;20.42;55.79;101088.22;5064617;28;47324;-54
2021/08/09 07:20:29;;;;;;;;;4.67;3.67;;;;;20.45;55.75;101088.03;5063325;28;45618;-53
2021/08/09 07:22:55;;;;;;;;;3.00;3.00;;;;;20.52;55.95;101093.97;5062828;28;45246;-54
2021/08/09 07:25:20;;;;;;;;;3.33;3.33;;;;;20.57;56.21;101097.25;5063268;27;45412;-54
2021/08/09 07:27:46;;;;;;;;;3.67;2.67;;;;;20.60;55.75;101098.94;5061310;28;48378;-54
2021/08/09 07:30:14;;;;;;;;;3.00;2.33;;;;;20.64;55.70;101089.69;5061224;28;45697;-55
2021/08/09 07:32:40;;;;;;;;;3.00;3.00;;;;;20.66;55.90;101090.47;5064012;27;45433;-55
2021/08/09 07:35:07;;;;;;;;;3.67;3.00;;;;;20.67;56.21;101097.59;5060298;28;45747;-53
2021/08/09 07:37:32;;;;;;;;;5.00;3.67;;;;;20.68;56.10;101089.41;5057241;28;47917;-53
2021/08/09 07:39:58;;;;;;;;;4.33;4.33;;;;;20.71;56.00;101102.75;5060163;28;46118;-58
2021/08/09 07:42:24;;;;;;;;;3.33;3.33;;;;;20.75;56.07;101111.53;5070734;28;45303;-56
2021/08/09 07:44:50;;;;;;;;;3.33;3.00;;;;;20.79;55.94;101102.28;5055470;28;45938;-55
2021/08/09 07:47:16;;;;;;;;;2.67;2.67;;;;;20.83;55.56;101098.44;5056692;28;47116;-55
2021/08/09 07:49:42;;;;;;;;;3.00;2.00;;;;;20.88;56.28;101107.16;5074979;28;45765;-55
2021/08/09 07:52:09;;;;;;;;;4.67;3.67;;;;;20.92;56.06;101106.00;5047029;28;45355;-55
2021/08/09 07:54:34;;;;;;;;;3.00;2.00;;;;;20.95;56.06;101108.53;5059481;28;45473;-54
2021/08/09 07:57:04;;;;;;;;;4.00;4.00;;;;;20.93;55.76;101105.03;5058934;28;47239;-55
2021/08/09 07:59:31;;;;;;;;;5.00;3.00;;;;;20.92;55.56;101113.22;5061459;28;45749;-56
2021/08/09 08:01:58;;;;;;;;;2.33;2.33;;;;;20.91;55.98;101112.38;5052065;28;45302;-55
2021/08/09 08:04:23;;;;;;;;;4.00;2.00;;;;;20.88;55.88;101106.28;5053590;28;45448;-55
2021/08/09 08:06:49;;;;;;;;;3.00;3.00;;;;;20.86;55.62;101114.47;5056536;28;47221;-53
2021/08/09 08:09:14;;;;;;;;;2.00;2.00;;;;;20.87;55.84;101110.81;5057907;28;46001;-55
2021/08/09 08:11:40;;;;;;;;;6.00;4.67;;;;;20.86;56.08;101111.78;5059230;28;45283;-55
2021/08/09 08:14:05;;;;;;;;;3.67;3.00;;;;;20.83;56.28;101104.75;5092107;27;45588;-53
2021/08/09 08:16:31;;;;;;;;;4.00;4.00;;;;;20.80;56.27;101114.81;5056456;28;47502;-55
2021/08/09 08:18:57;;;;;;;;;5.67;5.67;;;;;20.81;56.19;101111.16;5052290;28;45365;-54
2021/08/09 08:21:22;;;;;;;;;3.00;3.00;;;;;20.83;56.03;101118.22;5059685;28;45674;-55
2021/08/09 08:23:47;;;;;;;;;3.00;2.67;;;;;20.86;56.08;101111.78;5058983;28;45505;-55
2021/08/09 08:26:13;;;;;;;;;3.67;3.67;;;;;20.89;55.93;101116.13;5047107;28;48167;-56
2021/08/09 08:28:38;;;;;;;;;4.00;4.00;;;;;20.93;56.05;101117.66;5060084;28;45388;-55
2021/08/09 08:31:05;;;;;;;;;5.33;3.67;;;;;20.95;56.30;101122.00;5065449;28;45402;-53
2021/08/09 08:33:30;;;;;;;;;2.00;2.00;;;;;20.99;56.59;101117.31;5066179;28;45491;-56
2021/08/09 08:35:56;;;;;;;;;6.00;5.00;;;;;21.02;55.97;101109.91;5059784;28;47525;-54
2021/08/09 08:38:21;;;;;;;;;4.33;4.00;;;;;21.06;56.38;101110.59;5072498;28;45735;-55
2021/08/09 08:40:50;;;;;;;;;2.00;1.67;;;;;21.12;56.28;101118.34;5062113;28;45722;-53
2021/08/09 08:43:23;;;;;;;;;4.00;4.00;;;;;21.21;56.04;101116.91;5072973;28;45468;-55
2021/08/09 08:46:07;;;;;;;;;2.33;2.33;;;;;21.25;55.56;101113.09;5073579;27;48487;-55
2021/08/09 08:48:34;;;;;;;;;3.67;3.67;;;;;21.28;55.63;101113.78;5050372;28;45869;-52
2021/08/09 08:51:01;;;;;;;;;3.00;3.00;;;;;21.31;55.95;101110.91;5058863;28;45445;-54
2021/08/09 08:53:29;;;;;;;;;3.67;2.67;;;;;21.35;55.56;101111.59;5061009;27;45462;-55
2021/08/09 08:55:55;;;;;;;;;3.00;3.00;;;;;21.42;56.12;101118.34;5060126;28;47313;-54
2021/08/09 08:58:20;;;;;;;;;5.67;3.00;;;;;21.47;55.72;101118.06;5074698;27;45845;-54
2021/08/09 09:00:47;;;;;;;;;4.00;4.00;;;;;21.48;55.30;101123.41;5069595;28;45383;-53
2021/08/09 09:03:24;;;;;;;;;4.00;4.00;;;;;21.46;55.02;101119.91;5070348;27;45359;-53
2021/08/09 09:06:12;;;;;;;;;4.00;3.00;;;;;21.41;55.59;101114.78;5070108;28;47404;-55
2021/08/09 09:08:44;;;;;;;;;5.33;5.33;;;;;21.35;55.14;101114.31;5072027;27;46069;-57
2021/08/09 09:11:30;;;;;;;;;3.00;3.00;;;;;21.32;55.05;101118.03;5071826;27;45480;-55
2021/08/09 09:14:01;;;;;;;;;4.00;3.67;;;;;21.31;55.04;101137.91;5063161;27;45330;-55
2021/08/09 09:16:46;;;;;;;;;5.33;3.33;;;;;21.30;55.48;101143.38;5059170;27;47156;-55
2021/08/09 09:19:29;;;;;;;;;1.00;1.00;;;;;21.32;55.01;101144.16;5058346;27;45369;-55
2021/08/09 09:21:54;;;;;;;;;2.00;2.00;;;;;21.36;55.14;101141.22;5060928;28;45477;-55
2021/08/09 09:24:21;;;;;;;;;3.33;3.33;;;;;21.43;55.08;101150.66;5062525;28;45705;-55
2021/08/09 09:26:55;;;;;;;;;2.00;2.00;;;;;21.56;55.58;101152.63;5076391;27;48127;-54
2021/08/09 09:29:23;;;;;;;;;6.67;4.00;;;;;21.71;55.65;101149.84;5061703;28;45372;-55
2021/08/09 09:31:50;;;;;;;;;4.33;4.00;;;;;21.88;54.65;101153.38;5056508;28;45571;-54
2021/08/09 09:34:19;;;;;;;;;4.67;3.00;;;;;21.98;54.92;101157.25;5060914;28;45429;-56
2021/08/09 09:36:51;;;;;;;;;3.00;3.00;;;;;22.07;54.77;101156.69;5058597;28;47492;-55
2021/08/09 09:39:37;;;;;;;;;4.00;4.00;;;;;22.21;54.50;101155.81;5057469;28;45325;-53
2021/08/09 09:42:11;;;;;;;;;3.67;3.00;;;;;22.33;54.18;101145.09;5063469;28;45382;-55
2021/08/09 09:44:39;;;;;;;;;3.00;2.67;;;;;22.45;53.39;101148.84;5057899;27;45314;-56
2021/08/09 09:47:27;;;;;;;;;3.00;3.00;;;;;22.54;53.31;101150.09;5064662;28;48214;-56
2021/08/09 09:49:56;;;;;;;;;3.00;3.00;;;;;22.60;52.52;101146.97;5060223;28;45644;-56
2021/08/09 09:52:45;;;;;;;;;3.00;3.00;;;;;22.68;53.04;101150.06;5065419;28;45521;-54
2021/08/09 09:55:14;;;;;;;;;3.00;3.00;;;;;22.74;52.45;101157.78;5060997;28;45473;-55
2021/08/09 09:57:41;;;;;;;;;3.33;3.33;;;;;22.78;52.21;101166.56;5067833;28;47354;-54
2021/08/09 10:00:11;;;;;;;;;3.00;3.00;;;;;22.81;52.12;101166.38;5063603;28;45625;-56
2021/08/09 10:02:55;;;;;;;;;3.33;3.33;;;;;22.81;52.07;101160.94;5070389;28;45531;-54
2021/08/09 10:05:21;;;;;;;;;2.67;2.33;;;;;22.81;51.75;101172.66;5068008;27;45386;-55
2021/08/09 10:07:48;;;;;;;;;2.00;2.00;;;;;22.84;51.83;101177.88;5063497;28;47142;-56
2021/08/09 10:10:14;;;;;;;;;3.00;3.00;;;;;22.86;51.81;101167.81;5065362;28;45521;-55
2021/08/09 10:12:41;;;;;;;;;3.00;3.00;;;;;22.85;51.58;101167.91;5067887;27;45387;-53
2021/08/09 10:15:08;;;;;;;;;3.33;3.00;;;;;22.81;51.30;101166.38;5061548;28;45855;-53
2021/08/09 10:17:36;;;;;;;;;4.00;3.33;;;;;22.70;51.49;101156.25;5081375;27;48418;-55
2021/08/09 10:20:09;;;;;;;;;2.33;2.33;;;;;22.63;51.67;101170.28;5089038;27;45422;-56
2021/08/09 10:22:35;;;;;;;;;2.33;2.33;;;;;22.53;51.80;101170.88;5064889;27;45496;-55
2021/08/09 10:25:02;;;;;;;;;3.67;3.67;;;;;22.43;51.35;101155.31;5071108;28;46051;-53
2021/08/09 10:27:45;;;;;;;;;3.00;3.00;;;;;22.33;51.43;101157.75;5071725;27;47657;-54
2021/08/09 10:30:13;;;;;;;;;2.67;2.00;;;;;22.30;51.86;101160.66;5064014;28;45411;-54
2021/08/09 10:32:47;;;;;;;;;1.00;1.00;;;;;22.30;51.97;101161.50;5063564;28;45327;-55
2021/08/09 10:35:43;;;;;;;;;2.00;2.00;;;;;22.31;51.61;101159.69;5043141;28;45747;-56
2021/08/09 10:38:18;;;;;;;;;2.00;2.00;;;;;22.30;51.75;101157.94;5060216;28;47413;-56
2021/08/09 10:40:46;;;;;;;;;2.00;2.00;;;;;22.29;51.83;101156.22;5061442;27;45940;-57
2021/08/09 10:43:11;;;;;;;;;2.00;2.00;;;;;22.31;52.05;101149.72;5057926;28;45448;-56
2021/08/09 10:45:41;;;;;;;;;3.00;3.00;;;;;22.36;52.34;101145.84;5068536;27;45609;-58
2021/08/09 10:48:11;;;;;;;;;2.33;2.33;;;;;22.44;51.56;101154.34;5056451;28;46106;-55
2021/08/09 10:50:40;;;;;;;;;4.67;4.00;;;;;22.49;51.70;101146.84;5079298;27;45391;-55
2021/08/09 10:53:24;;;;;;;;;5.00;3.00;;;;;22.56;51.50;101143.63;5067446;28;45346;-57
2021/08/09 10:55:54;;;;;;;;;3.00;3.00;;;;;22.60;51.18;101145.13;5067122;27;45722;-57
2021/08/09 10:58:41;;;;;;;;;4.00;4.00;;;;;22.61;50.95;101137.88;5053106;28;45677;-56
2021/08/09 11:01:07;;;;;;;;;3.00;3.00;;;;;22.60;51.30;101142.44;5089699;27;45490;-55
2021/08/09 11:03:33;;;;;;;;;2.00;2.00;;;;;22.65;51.03;101141.28;5068392;28;45422;-54
2021/08/09 11:05:58;;;;;;;;;2.67;2.67;;;;;22.70;50.71;101147.25;5053620;28;45619;-56
2021/08/09 11:08:24;;;;;;;;;2.00;2.00;;;;;22.77;50.99;101154.00;5060382;28;47742;-56
2021/08/09 11:10:55;;;;;;;;;2.67;2.33;;;;;22.83;50.80;101146.38;5053759;28;45286;-56
2021/08/09 11:13:44;;;;;;;;;2.67;2.67;;;;;22.90;51.12;101146.84;5074589;27;45666;-58
2021/08/09 11:16:09;;;;;;;;;3.00;3.00;;;;;22.99;50.37;101153.47;5045389;28;45562;-56
2021/08/09 11:18:35;;;;;;;;;2.67;2.33;;;;;23.06;50.33;101144.84;5059611;28;47277;-56
2021/08/09 11:21:04;;;;;;;;;2.00;1.00;;;;;23.12;49.85;101144.47;5060074;27;45903;-57
2021/08/09 11:23:38;;;;;;;;;2.67;2.67;;;;;23.16;49.99;101137.84;5071085;28;45331;-57
2021/08/09 11:26:05;;;;;;;;;2.33;2.33;;;;;23.23;49.97;101148.25;5055866;28;45602;-57
2021/08/09 11:28:31;;;;;;;;;2.67;2.00;;;;;23.32;49.64;101134.97;5056224;28;47407;-57